Time;durP1;ratioP1;P1;durP2;ratioP2;P2;SDS_P1;SDS_P2;PMS_P1;PMS_P2;Temp;Humidity;BMP_temperature;BMP_pressure;BME280_temperature;BME280_humidity;BME280_pressure;Samples;Min_cycle;Max_cycle;Signal;HPM_P1;HPM_P2
2022/10/18 00:01:07;;;;;;;4.88;3.25;;;22.10;62.60;;;;;;5051079;28;20420;-51
2022/10/18 00:03:34;;;;;;;3.40;3.05;;;22.10;62.60;;;;;;5051125;28;20033;-51
2022/10/18 00:06:00;;;;;;;3.13;2.83;;;22.10;62.60;;;;;;5051163;28;20086;-50
2022/10/18 00:08:27;;;;;;;3.45;3.15;;;22.10;62.60;;;;;;5050740;28;20044;-52
2022/10/18 00:10:53;;;;;;;3.13;2.83;;;22.10;62.60;;;;;;5047355;28;20345;-50
2022/10/18 00:13:19;;;;;;;3.20;2.80;;;22.10;62.60;;;;;;5047732;28;20037;-48
2022/10/18 00:15:55;;;;;;;3.63;3.33;;;22.10;62.70;;;;;;5050706;28;20032;-53
2022/10/18 00:18:22;;;;;;;4.05;3.15;;;22.10;62.70;;;;;;5048300;28;20048;-52
2022/10/18 00:21:06;;;;;;;3.83;3.30;;;22.10;62.70;;;;;;5050922;28;20117;-54
2022/10/18 00:23:34;;;;;;;3.28;2.97;;;22.10;62.70;;;;;;5049887;28;20025;-50
2022/10/18 00:26:00;;;;;;;3.35;3.05;;;22.10;62.70;;;;;;5050677;28;20052;-53
2022/10/18 00:28:25;;;;;;;4.03;3.63;;;22.10;62.80;;;;;;5049103;28;20138;-52
2022/10/18 00:30:51;;;;;;;3.53;3.22;;;22.10;62.80;;;;;;5050716;28;20039;-53
2022/10/18 00:33:17;;;;;;;4.85;3.92;;;22.00;62.70;;;;;;5049575;28;20447;-53
2022/10/18 00:35:43;;;;;;;3.50;3.17;;;22.10;62.80;;;;;;5037520;28;20052;-53
2022/10/18 00:38:08;;;;;;;3.55;3.10;;;22.00;62.70;;;;;;5050661;28;20037;-54
2022/10/18 00:40:34;;;;;;;4.47;3.15;;;22.10;62.80;;;;;;5050485;28;20129;-52
2022/10/18 00:43:00;;;;;;;3.40;3.10;;;22.00;62.70;;;;;;5048655;28;20497;-53
2022/10/18 00:45:26;;;;;;;4.88;3.53;;;22.00;62.80;;;;;;5050339;28;20443;-53
2022/10/18 00:47:59;;;;;;;4.25;3.33;;;22.00;62.80;;;;;;5049813;28;20021;-54
2022/10/18 00:50:29;;;;;;;3.80;3.40;;;22.00;62.80;;;;;;5050648;28;20032;-54
2022/10/18 00:52:57;;;;;;;3.38;3.08;;;22.00;62.80;;;;;;5050522;28;20029;-50
2022/10/18 00:55:25;;;;;;;3.75;3.35;;;22.00;62.80;;;;;;5050497;28;20040;-50
2022/10/18 00:57:51;;;;;;;3.90;3.17;;;22.00;62.80;;;;;;5049988;28;20044;-53
2022/10/18 01:00:17;;;;;;;5.85;4.13;;;22.00;62.80;;;;;;5047027;28;20033;-53
2022/10/18 01:02:45;;;;;;;4.03;3.60;;;22.00;62.90;;;;;;5049592;28;20036;-50
2022/10/18 01:05:13;;;;;;;4.22;3.45;;;22.00;62.90;;;;;;5049496;28;20087;-51
2022/10/18 01:07:56;;;;;;;3.67;3.38;;;22.00;62.90;;;;;;5049860;28;20024;-53
2022/10/18 01:10:30;;;;;;;3.70;3.33;;;22.00;62.90;;;;;;5047486;28;20036;-46
2022/10/18 01:13:14;;;;;;;9.63;4.35;;;22.00;62.90;;;;;;5049531;28;20049;-53
2022/10/18 01:16:00;;;;;;;4.97;3.90;;;22.00;62.90;;;;;;5048681;28;20029;-50
2022/10/18 01:18:38;;;;;;;4.28;3.88;;;22.00;62.90;;;;;;5049157;28;20364;-53
2022/10/18 01:21:15;;;;;;;4.82;4.20;;;22.00;62.90;;;;;;5049562;28;20036;-53
2022/10/18 01:23:44;;;;;;;4.22;3.83;;;22.00;63.00;;;;;;5048649;28;20490;-52
2022/10/18 01:26:19;;;;;;;4.68;4.18;;;22.00;63.00;;;;;;5050076;28;20028;-49
2022/10/18 01:28:50;;;;;;;4.20;3.83;;;22.00;63.00;;;;;;5047895;28;20091;-53
2022/10/18 01:31:22;;;;;;;5.60;4.38;;;22.00;63.00;;;;;;5049008;28;20032;-52
2022/10/18 01:33:56;;;;;;;4.90;3.83;;;22.00;63.00;;;;;;5047683;28;20025;-50
2022/10/18 01:36:24;;;;;;;;;;;22.00;63.10;;;;;;5050131;28;20090;-52
2022/10/18 01:38:53;;;;;;;4.90;4.13;;;22.00;63.10;;;;;;5049095;28;20415;-49
2022/10/18 01:41:21;;;;;;;4.78;3.72;;;22.00;63.10;;;;;;5050628;28;20040;-53
2022/10/18 01:43:51;;;;;;;4.57;3.97;;;22.00;63.10;;;;;;5049602;28;20048;-53
2022/10/18 01:46:21;;;;;;;5.90;4.07;;;22.00;63.20;;;;;;5050696;28;20021;-52
2022/10/18 01:48:48;;;;;;;4.85;4.32;;;22.00;63.10;;;;;;5049269;28;20037;-53
2022/10/18 01:51:17;;;;;;;4.70;4.18;;;22.00;63.20;;;;;;5048649;28;20053;-49
2022/10/18 01:53:43;;;;;;;4.57;4.18;;;22.00;63.10;;;;;;5049517;28;20048;-52
2022/10/18 01:56:26;;;;;;;4.45;3.90;;;22.00;63.10;;;;;;5050244;28;20021;-51
2022/10/18 01:59:24;;;;;;;5.00;4.25;;;22.00;63.10;;;;;;5048632;28;20044;-52
2022/10/18 02:01:53;;;;;;;5.18;4.05;;;22.00;63.10;;;;;;5051610;28;20032;-53
2022/10/18 02:04:26;;;;;;;5.05;4.53;;;22.00;63.10;;;;;;5053313;28;20036;-52
2022/10/18 02:07:02;;;;;;;4.50;3.85;;;22.00;63.10;;;;;;5051357;28;20021;-53
2022/10/18 02:09:39;;;;;;;5.80;4.57;;;22.00;63.20;;;;;;5051004;28;20322;-54
2022/10/18 02:12:09;;;;;;;5.75;3.97;;;22.00;63.20;;;;;;5052844;28;20065;-53
2022/10/18 02:14:36;;;;;;;6.10;4.28;;;22.00;63.20;;;;;;5049658;28;20035;-52
2022/10/18 02:17:05;;;;;;;5.45;4.95;;;22.00;63.10;;;;;;5053450;28;20037;-51
2022/10/18 02:19:40;;;;;;;6.07;4.43;;;22.00;63.10;;;;;;5050771;28;20025;-53
2022/10/18 02:22:09;;;;;;;5.13;4.35;;;22.00;63.10;;;;;;5052105;28;20087;-53
2022/10/18 02:24:48;;;;;;;5.00;4.50;;;22.00;63.00;;;;;;5052175;28;20033;-50
2022/10/18 02:27:14;;;;;;;5.00;4.50;;;22.00;63.00;;;;;;5052812;28;20033;-54
2022/10/18 02:29:41;;;;;;;4.95;4.45;;;22.00;63.00;;;;;;5051107;28;20423;-52
2022/10/18 02:32:15;;;;;;;5.20;4.50;;;22.00;63.00;;;;;;5050152;28;20029;-51
2022/10/18 02:34:47;;;;;;;6.07;4.70;;;22.00;63.00;;;;;;5051449;28;20450;-50
2022/10/18 02:37:14;;;;;;;5.63;4.38;;;22.00;62.90;;;;;;5048597;28;20392;-52
2022/10/18 02:39:45;;;;;;;5.20;4.35;;;21.90;62.80;;;;;;5050821;28;20039;-52
2022/10/18 02:42:12;;;;;;;7.03;4.72;;;21.90;62.80;;;;;;5052368;28;20072;-53
2022/10/18 02:44:38;;;;;;;5.88;4.38;;;21.90;62.80;;;;;;5050324;28;20094;-50
2022/10/18 02:47:05;;;;;;;8.50;4.32;;;21.90;62.70;;;;;;5053198;28;20021;-52
2022/10/18 02:49:31;;;;;;;5.13;4.30;;;22.00;62.80;;;;;;5050896;28;20017;-51
2022/10/18 02:51:57;;;;;;;5.03;4.13;;;21.90;62.70;;;;;;5052392;28;21764;-51
2022/10/18 02:54:23;;;;;;;4.95;4.07;;;21.90;62.60;;;;;;5052047;28;20037;-51
2022/10/18 02:56:49;;;;;;;4.93;3.80;;;21.90;62.60;;;;;;5053231;28;20048;-51
2022/10/18 02:59:15;;;;;;;5.80;4.30;;;21.90;62.60;;;;;;5052066;28;20389;-54
2022/10/18 03:01:41;;;;;;;4.32;3.85;;;22.00;62.60;;;;;;5051960;28;20060;-53
2022/10/18 03:04:07;;;;;;;4.90;3.65;;;21.90;62.50;;;;;;5050407;28;20492;-54
2022/10/18 03:06:33;;;;;;;4.70;3.85;;;21.90;62.50;;;;;;5052607;28;20024;-52
2022/10/18 03:09:01;;;;;;;5.25;4.10;;;21.90;62.40;;;;;;5050380;28;20511;-49
2022/10/18 03:11:27;;;;;;;4.40;3.90;;;21.90;62.50;;;;;;5048768;28;20021;-51
2022/10/18 03:13:53;;;;;;;4.72;4.07;;;21.90;62.40;;;;;;5050202;28;21284;-53
2022/10/18 03:16:18;;;;;;;4.45;4.05;;;21.90;62.40;;;;;;5051989;28;20094;-49
2022/10/18 03:18:44;;;;;;;4.95;3.92;;;21.90;62.30;;;;;;5050994;28;20063;-54
2022/10/18 03:21:10;;;;;;;4.53;3.97;;;21.90;62.30;;;;;;5050839;28;20028;-52
2022/10/18 03:23:36;;;;;;;4.47;3.97;;;21.90;62.30;;;;;;5051870;28;20416;-52
2022/10/18 03:26:02;;;;;;;4.40;3.85;;;21.90;62.30;;;;;;5051159;28;21168;-51
2022/10/18 03:28:28;;;;;;;5.22;4.32;;;21.90;62.30;;;;;;5052351;28;20044;-54
2022/10/18 03:30:59;;;;;;;5.32;3.90;;;21.90;62.30;;;;;;5051382;28;20463;-54
2022/10/18 03:33:25;;;;;;;5.05;4.32;;;21.90;62.20;;;;;;5051296;28;20079;-52
2022/10/18 03:35:51;;;;;;;4.30;3.75;;;21.90;62.20;;;;;;5050581;28;20037;-53
2022/10/18 03:38:16;;;;;;;4.30;3.58;;;21.90;62.20;;;;;;5048792;28;20127;-53
2022/10/18 03:40:42;;;;;;;5.18;3.88;;;21.90;62.20;;;;;;5051087;28;20102;-53
2022/10/18 03:43:08;;;;;;;5.20;4.10;;;21.90;62.30;;;;;;5051618;28;20036;-54
2022/10/18 03:45:34;;;;;;;4.07;3.67;;;21.90;62.20;;;;;;5050140;28;20043;-53
2022/10/18 03:48:00;;;;;;;5.70;3.55;;;21.90;62.20;;;;;;5051169;28;20056;-50
2022/10/18 03:50:25;;;;;;;4.18;3.47;;;21.90;62.20;;;;;;5050135;28;20410;-52
2022/10/18 03:52:53;;;;;;;5.40;3.47;;;21.90;62.20;;;;;;5051721;28;20087;-52
2022/10/18 03:55:18;;;;;;;4.20;3.78;;;21.90;62.20;;;;;;5049733;28;20097;-51
2022/10/18 03:57:44;;;;;;;4.25;3.42;;;21.90;62.10;;;;;;5050969;28;20044;-52
2022/10/18 04:00:11;;;;;;;4.63;3.78;;;21.90;62.10;;;;;;5050236;28;20107;-51
2022/10/18 04:02:40;;;;;;;5.15;3.85;;;21.90;62.10;;;;;;5050941;28;20112;-51
2022/10/18 04:05:07;;;;;;;5.47;4.07;;;21.90;62.10;;;;;;5050845;28;20068;-52
2022/10/18 04:07:34;;;;;;;4.60;3.90;;;21.80;62.00;;;;;;5050439;28;21182;-52
2022/10/18 04:10:00;;;;;;;4.43;3.40;;;21.80;62.00;;;;;;5049286;28;20035;-51
2022/10/18 04:12:25;;;;;;;5.20;3.60;;;21.90;62.00;;;;;;5051021;28;20116;-52
2022/10/18 04:14:51;;;;;;;4.05;3.30;;;21.80;61.90;;;;;;5050217;28;20061;-47
2022/10/18 04:17:17;;;;;;;4.28;3.67;;;21.80;62.00;;;;;;5050340;28;20037;-53
2022/10/18 04:19:43;;;;;;;4.72;3.47;;;21.80;61.90;;;;;;5049060;28;20103;-53
2022/10/18 04:22:10;;;;;;;4.30;3.30;;;21.80;61.90;;;;;;5050214;28;20025;-52
2022/10/18 04:24:37;;;;;;;4.05;3.40;;;21.80;61.90;;;;;;5050906;28;20033;-51
2022/10/18 04:27:04;;;;;;;4.32;3.22;;;21.80;61.90;;;;;;5050276;28;20028;-52
2022/10/18 04:29:30;;;;;;;3.80;3.30;;;21.80;61.90;;;;;;5050712;28;20044;-52
2022/10/18 04:31:56;;;;;;;3.75;3.15;;;21.80;61.90;;;;;;5050071;28;20037;-50
2022/10/18 04:34:22;;;;;;;4.70;3.78;;;21.80;61.80;;;;;;5050769;28;20036;-53
2022/10/18 04:36:48;;;;;;;3.63;3.22;;;21.80;61.80;;;;;;5049795;28;20037;-47
2022/10/18 04:39:13;;;;;;;3.90;3.28;;;21.80;61.80;;;;;;5050858;28;20032;-51
2022/10/18 04:41:39;;;;;;;5.13;3.67;;;21.80;61.80;;;;;;5049301;28;20871;-52
2022/10/18 04:44:05;;;;;;;4.05;3.53;;;21.80;61.80;;;;;;5051465;28;20044;-51
2022/10/18 04:46:31;;;;;;;3.97;3.20;;;21.80;61.80;;;;;;5049657;28;20087;-54
2022/10/18 04:48:59;;;;;;;4.35;3.40;;;21.80;61.80;;;;;;5049307;28;20025;-54
2022/10/18 04:51:25;;;;;;;4.38;3.15;;;21.80;61.70;;;;;;5049596;28;20172;-48
2022/10/18 04:53:50;;;;;;;3.63;3.10;;;21.80;61.70;;;;;;5049598;28;20411;-49
2022/10/18 04:56:16;;;;;;;3.97;3.00;;;21.80;61.70;;;;;;5050538;28;20075;-47
2022/10/18 04:58:42;;;;;;;3.38;2.80;;;21.80;61.70;;;;;;5050925;28;20032;-51
2022/10/18 05:01:08;;;;;;;4.68;3.20;;;21.80;61.70;;;;;;5049515;28;20151;-51
2022/10/18 05:03:34;;;;;;;4.15;3.30;;;21.80;61.60;;;;;;5049129;28;20068;-50
2022/10/18 05:06:00;;;;;;;4.70;2.97;;;21.80;61.60;;;;;;5048840;28;20025;-53
2022/10/18 05:08:25;;;;;;;4.55;3.08;;;21.80;61.60;;;;;;5048812;28;20353;-51
2022/10/18 05:10:51;;;;;;;3.22;2.67;;;21.80;61.60;;;;;;5050018;28;20090;-48
2022/10/18 05:13:17;;;;;;;3.72;2.97;;;21.70;61.50;;;;;;5048699;28;20056;-48
2022/10/18 05:15:45;;;;;;;4.25;3.00;;;21.80;61.50;;;;;;5049468;28;20154;-52
2022/10/18 05:18:11;;;;;;;3.40;2.90;;;21.80;61.50;;;;;;5049105;28;20041;-50
2022/10/18 05:20:36;;;;;;;4.43;3.10;;;21.70;61.50;;;;;;5050074;28;20021;-50
2022/10/18 05:23:02;;;;;;;3.70;3.08;;;21.80;61.50;;;;;;5049811;28;20031;-53
2022/10/18 05:25:28;;;;;;;5.50;3.17;;;21.70;61.40;;;;;;5050132;28;20029;-51
2022/10/18 05:27:54;;;;;;;3.30;2.95;;;21.70;61.40;;;;;;5047702;28;20033;-51
2022/10/18 05:30:20;;;;;;;3.97;2.95;;;21.70;61.40;;;;;;5050539;28;20059;-47
2022/10/18 05:32:46;;;;;;;3.17;2.70;;;21.70;61.40;;;;;;5049893;28;20021;-52
2022/10/18 05:35:12;;;;;;;3.53;2.85;;;21.70;62.00;;;;;;5050851;28;20437;-53
2022/10/18 05:37:38;;;;;;;4.05;3.08;;;21.70;61.40;;;;;;5054233;28;20045;-50
2022/10/18 05:40:04;;;;;;;3.50;2.92;;;21.70;61.40;;;;;;5053023;28;20036;-52
2022/10/18 05:42:30;;;;;;;3.67;2.95;;;21.70;61.40;;;;;;5050967;28;20368;-52
2022/10/18 05:44:55;;;;;;;3.55;2.72;;;21.70;61.30;;;;;;5053744;28;20025;-51
2022/10/18 05:47:21;;;;;;;3.05;2.53;;;21.70;61.30;;;;;;5053133;28;20114;-54
2022/10/18 05:49:47;;;;;;;3.28;2.67;;;21.70;61.30;;;;;;5053777;28;20032;-53
2022/10/18 05:52:13;;;;;;;3.03;2.72;;;21.70;61.30;;;;;;5052508;28;20406;-54
2022/10/18 05:54:39;;;;;;;3.15;2.55;;;21.70;61.30;;;;;;5053731;28;20029;-54
2022/10/18 05:57:05;;;;;;;3.80;2.90;;;21.70;61.30;;;;;;5053164;28;20037;-51
2022/10/18 05:59:30;;;;;;;3.50;2.60;;;21.70;61.30;;;;;;5053409;28;20330;-51
2022/10/18 06:01:56;;;;;;;3.83;2.78;;;21.70;61.30;;;;;;5053412;28;20033;-53
2022/10/18 06:04:22;;;;;;;3.45;2.70;;;21.70;61.30;;;;;;5053768;28;20083;-54
2022/10/18 06:06:48;;;;;;;3.33;2.58;;;21.70;61.30;;;;;;5053416;28;20044;-54
2022/10/18 06:09:13;;;;;;;3.47;2.72;;;21.70;61.20;;;;;;5051684;28;20040;-53
2022/10/18 06:11:39;;;;;;;2.92;2.40;;;21.70;61.20;;;;;;5052548;28;21284;-47
2022/10/18 06:14:07;;;;;;;3.33;2.40;;;21.70;61.20;;;;;;5052291;28;20037;-51
2022/10/18 06:16:33;;;;;;;2.95;2.47;;;21.70;61.20;;;;;;5050403;28;20087;-50
2022/10/18 06:18:59;;;;;;;2.97;2.30;;;21.70;61.20;;;;;;5051026;28;20025;-49
2022/10/18 06:21:25;;;;;;;2.63;1.80;;;21.70;61.80;;;;;;5051927;28;20432;-52
2022/10/18 06:23:52;;;;;;;2.22;1.90;;;21.70;61.10;;;;;;5051712;28;20538;-51
2022/10/18 06:26:18;;;;;;;3.47;1.98;;;21.70;61.20;;;;;;5049967;28;20037;-50
2022/10/18 06:28:44;;;;;;;2.55;1.90;;;21.70;61.10;;;;;;5052355;28;20104;-51
2022/10/18 06:31:11;;;;;;;2.47;2.00;;;21.70;61.20;;;;;;5052669;28;20120;-54
2022/10/18 06:33:37;;;;;;;2.00;1.70;;;21.70;61.10;;;;;;5052407;28;20041;-53
2022/10/18 06:36:04;;;;;;;1.85;1.65;;;21.70;61.10;;;;;;5050407;28;20114;-52
2022/10/18 06:38:30;;;;;;;2.38;1.98;;;21.70;61.10;;;;;;5051762;28;20070;-54
2022/10/18 06:40:57;;;;;;;2.33;1.77;;;21.70;61.10;;;;;;5051902;28;20061;-52
2022/10/18 06:43:24;;;;;;;1.95;1.50;;;21.70;61.10;;;;;;5047377;28;20545;-51
2022/10/18 06:45:50;;;;;;;2.67;1.67;;;21.70;61.00;;;;;;5050936;28;20032;-50
2022/10/18 06:48:17;;;;;;;2.35;1.80;;;21.70;61.00;;;;;;5050957;28;20064;-52
2022/10/18 06:50:54;;;;;;;2.58;1.88;;;21.70;61.00;;;;;;5050908;28;20131;-53
2022/10/18 06:53:19;;;;;;;2.33;1.63;;;21.60;60.90;;;;;;5051086;28;20021;-52
2022/10/18 06:55:45;;;;;;;3.05;2.08;;;21.60;60.90;;;;;;5052569;28;20021;-47
2022/10/18 06:58:11;;;;;;;2.00;1.80;;;21.60;60.90;;;;;;5051425;28;20045;-53
2022/10/18 07:00:38;;;;;;;1.90;1.70;;;21.60;60.90;;;;;;5048853;28;20033;-53
2022/10/18 07:03:04;;;;;;;3.85;1.75;;;21.60;60.90;;;;;;5052389;28;20514;-50
2022/10/18 07:05:30;;;;;;;2.72;1.67;;;21.60;61.00;;;;;;5051283;28;20041;-53
2022/10/18 07:07:56;;;;;;;2.25;1.58;;;21.60;61.10;;;;;;5051719;28;20029;-49
2022/10/18 07:10:23;;;;;;;2.33;1.70;;;21.60;61.10;;;;;;5050390;28;20044;-51
2022/10/18 07:12:49;;;;;;;2.08;1.88;;;21.60;61.10;;;;;;5055599;28;20057;-50
2022/10/18 07:15:16;;;;;;;2.20;1.70;;;21.70;61.10;;;;;;5056291;28;20082;-51
2022/10/18 07:17:46;;;;;;;3.92;1.52;;;21.70;61.10;;;;;;5056181;28;20036;-53
2022/10/18 07:20:12;;;;;;;3.42;1.83;;;21.70;61.00;;;;;;5049791;28;20380;-52
2022/10/18 07:22:38;;;;;;;2.95;2.13;;;21.70;61.10;;;;;;5049032;28;20020;-50
2022/10/18 07:25:07;;;;;;;3.17;2.10;;;21.70;61.00;;;;;;5050910;28;20024;-51
2022/10/18 07:27:38;;;;;;;2.47;1.83;;;21.70;60.90;;;;;;5048862;28;20029;-50
2022/10/18 07:30:06;;;;;;;3.05;1.77;;;21.70;60.90;;;;;;5052360;28;20453;-52
2022/10/18 07:32:31;;;;;;;3.33;1.80;;;21.70;60.90;;;;;;5050421;28;20444;-52
2022/10/18 07:34:57;;;;;;;2.97;1.70;;;21.70;60.90;;;;;;5050712;28;20025;-53
2022/10/18 07:37:23;;;;;;;3.83;1.95;;;21.70;60.90;;;;;;5051283;28;20064;-53
2022/10/18 07:39:49;;;;;;;2.97;1.90;;;21.70;60.90;;;;;;5051133;28;20086;-52
2022/10/18 07:42:14;;;;;;;2.30;1.52;;;21.70;60.80;;;;;;5051118;28;20059;-48
2022/10/18 07:44:40;;;;;;;2.13;1.58;;;21.70;60.80;;;;;;5049394;28;20678;-53
2022/10/18 07:47:06;;;;;;;3.42;1.75;;;21.70;61.00;;;;;;5048302;28;20070;-51
2022/10/18 07:49:32;;;;;;;2.90;2.10;;;21.70;60.70;;;;;;5050122;28;20032;-51
2022/10/18 07:51:57;;;;;;;2.55;1.55;;;21.70;60.70;;;;;;5049019;28;20025;-53
2022/10/18 07:54:23;;;;;;;2.80;1.70;;;21.70;60.70;;;;;;5050736;28;20037;-54
2022/10/18 07:56:49;;;;;;;2.38;1.50;;;21.70;60.70;;;;;;5054833;28;20033;-51
2022/10/18 07:59:15;;;;;;;2.25;1.60;;;21.70;60.70;;;;;;5047137;28;20441;-50
2022/10/18 08:01:41;;;;;;;2.67;1.60;;;21.70;60.50;;;;;;5043638;28;20039;-54
2022/10/18 08:04:06;;;;;;;1.65;1.30;;;21.70;60.40;;;;;;5049644;28;20040;-53
2022/10/18 08:06:32;;;;;;;2.92;1.58;;;21.70;60.30;;;;;;5055273;28;20029;-51
2022/10/18 08:08:58;;;;;;;2.13;1.55;;;21.70;60.20;;;;;;5054506;28;20044;-53
2022/10/18 08:11:24;;;;;;;4.32;1.73;;;21.70;60.10;;;;;;5054442;28;20432;-54
2022/10/18 08:13:51;;;;;;;1.73;1.20;;;21.70;60.00;;;;;;5054784;28;20158;-51
2022/10/18 08:16:26;;;;;;;3.03;1.50;;;21.70;60.00;;;;;;5052831;28;20041;-55
2022/10/18 08:18:52;;;;;;;2.47;1.65;;;21.70;59.90;;;;;;5041338;28;20037;-51
2022/10/18 08:21:19;;;;;;;2.60;1.52;;;21.70;60.00;;;;;;5035507;28;20037;-54
2022/10/18 08:23:46;;;;;;;2.08;1.38;;;21.70;59.90;;;;;;5035603;28;20037;-51
2022/10/18 08:26:19;;;;;;;2.25;1.20;;;21.70;59.90;;;;;;5035359;28;20029;-54
2022/10/18 08:28:45;;;;;;;2.22;1.20;;;21.70;59.80;;;;;;5035337;28;20032;-53
2022/10/18 08:31:13;;;;;;;2.15;1.38;;;21.70;59.70;;;;;;5035275;28;20034;-53
2022/10/18 08:33:39;;;;;;;2.55;1.25;;;21.70;59.60;;;;;;5037860;28;20028;-54
2022/10/18 08:36:06;;;;;;;2.47;1.23;;;21.70;59.60;;;;;;5054944;28;20039;-54
2022/10/18 08:38:34;;;;;;;3.92;1.13;;;21.70;59.50;;;;;;5055075;28;20041;-52
2022/10/18 08:41:11;;;;;;;2.65;1.17;;;21.70;59.40;;;;;;5055268;28;20055;-52
2022/10/18 08:43:44;;;;;;;2.33;1.15;;;21.70;59.30;;;;;;5055015;28;20060;-48
2022/10/18 08:46:11;;;;;;;2.88;1.27;;;21.70;59.20;;;;;;5054965;28;20102;-49
2022/10/18 08:48:48;;;;;;;1.88;1.38;;;21.80;59.20;;;;;;5054212;28;20121;-52
2022/10/18 08:51:28;;;;;;;2.33;1.23;;;21.70;59.10;;;;;;5053521;28;20025;-54
2022/10/18 08:54:03;;;;;;;4.32;1.35;;;21.70;59.00;;;;;;5049993;28;20049;-51
2022/10/18 08:56:29;;;;;;;2.30;1.23;;;21.70;59.00;;;;;;5051181;28;20447;-48
2022/10/18 08:58:55;;;;;;;2.38;1.08;;;21.70;59.10;;;;;;5054006;28;20057;-54
2022/10/18 09:01:58;;;;;;;2.67;1.30;;;21.70;59.40;;;;;;5055048;28;20063;-55
2022/10/18 09:04:53;;;;;;;2.53;1.23;;;21.70;59.50;;;;;;5034594;28;20480;-53
2022/10/18 09:07:25;;;;;;;;;;;21.70;59.70;;;;;;5022043;28;20088;-51
2022/10/18 09:10:28;;;;;;;2.10;1.15;;;21.80;59.80;;;;;;5048473;28;20248;-51
2022/10/18 09:13:40;;;;;;;2.10;1.30;;;21.80;59.90;;;;;;5056876;28;20571;-49
2022/10/18 09:16:17;;;;;;;2.22;1.23;;;21.80;60.00;;;;;;5058431;28;20044;-53
2022/10/18 09:19:06;;;;;;;2.70;1.55;;;21.80;60.10;;;;;;5057119;28;20562;-53
2022/10/18 09:21:51;;;;;;;2.38;1.30;;;21.80;60.10;;;;;;5056902;28;20044;-52
2022/10/18 09:24:45;;;;;;;2.22;1.10;;;21.80;60.10;;;;;;5053056;28;20403;-50
2022/10/18 09:27:16;;;;;;;2.53;1.10;;;21.80;60.10;;;;;;5058132;28;20475;-51
2022/10/18 09:29:51;;;;;;;3.08;1.13;;;21.80;60.10;;;;;;5056038;28;20376;-50
2022/10/18 09:32:28;;;;;;;2.88;1.02;;;21.80;60.10;;;;;;5056565;28;20033;-53
2022/10/18 09:35:12;;;;;;;2.85;1.40;;;21.80;60.10;;;;;;5058940;28;20044;-54
2022/10/18 09:37:38;;;;;;;2.40;1.27;;;21.90;60.10;;;;;;5057868;28;20451;-53
2022/10/18 09:40:26;;;;;;;2.60;1.05;;;21.90;60.10;;;;;;5058331;28;20064;-53
2022/10/18 09:43:21;;;;;;;2.45;1.20;;;21.90;60.00;;;;;;5054168;28;20035;-53
2022/10/18 09:45:48;;;;;;;1.98;0.85;;;21.90;59.90;;;;;;5034985;28;20171;-54
2022/10/18 09:48:30;;;;;;;2.78;0.90;;;22.00;59.80;;;;;;5054513;28;20086;-55
2022/10/18 09:50:57;;;;;;;2.50;1.38;;;22.00;59.70;;;;;;5057713;28;20040;-51
2022/10/18 09:53:49;;;;;;;2.92;1.42;;;22.00;59.70;;;;;;5058023;28;20185;-52
2022/10/18 09:56:21;;;;;;;3.15;1.15;;;22.00;59.60;;;;;;5058291;28;20056;-50
2022/10/18 09:58:50;;;;;;;2.50;1.00;;;22.00;59.60;;;;;;5055966;28;20368;-51
2022/10/18 10:01:27;;;;;;;3.50;1.40;;;22.00;59.50;;;;;;5058406;28;20043;-52
2022/10/18 10:03:53;;;;;;;2.08;1.20;;;22.10;59.50;;;;;;5056561;28;20033;-54
2022/10/18 10:06:28;;;;;;;2.78;1.30;;;22.10;59.50;;;;;;5055616;28;20025;-49
2022/10/18 10:08:59;;;;;;;2.65;1.10;;;22.10;59.30;;;;;;5056418;28;20024;-52
2022/10/18 10:11:39;;;;;;;3.00;1.13;;;22.10;59.30;;;;;;5056533;28;20037;-55
2022/10/18 10:14:12;;;;;;;2.35;1.20;;;22.10;59.30;;;;;;5054868;28;20033;-49
2022/10/18 10:16:58;;;;;;;9.43;1.52;;;22.20;59.20;;;;;;5054240;28;20044;-45
2022/10/18 10:19:26;;;;;;;9.45;1.58;;;22.20;59.10;;;;;;5050243;28;20078;-46
2022/10/18 10:22:02;;;;;;;3.72;1.08;;;22.20;59.10;;;;;;5054650;28;20075;-52
2022/10/18 10:24:32;;;;;;;6.45;1.17;;;22.20;59.00;;;;;;5056887;28;20037;-51
2022/10/18 10:27:00;;;;;;;6.38;1.35;;;22.30;58.90;;;;;;5055909;28;20025;-53
2022/10/18 10:29:44;;;;;;;5.32;1.30;;;22.30;58.90;;;;;;5055201;28;20044;-54
2022/10/18 10:32:16;;;;;;;2.92;1.00;;;22.30;58.80;;;;;;5049721;28;20333;-52
2022/10/18 10:34:42;;;;;;;5.22;1.35;;;22.30;58.80;;;;;;5057601;28;20422;-55
2022/10/18 10:37:32;;;;;;;3.80;1.00;;;22.30;58.70;;;;;;5054281;28;20033;-55
2022/10/18 10:40:12;;;;;;;2.85;1.08;;;22.40;58.50;;;;;;5055300;28;20456;-54
2022/10/18 10:42:52;;;;;;;3.85;1.48;;;22.50;58.30;;;;;;5049340;28;20115;-57
2022/10/18 10:45:20;;;;;;;5.25;1.60;;;22.60;57.90;;;;;;5043011;28;20060;-54
2022/10/18 10:47:47;;;;;;;2.55;1.00;;;22.60;57.50;;;;;;5055272;28;20025;-57
2022/10/18 10:50:22;;;;;;;3.67;1.25;;;22.80;57.20;;;;;;5052358;28;20142;-56
2022/10/18 10:52:48;;;;;;;3.75;1.00;;;22.90;56.60;;;;;;5049076;28;20115;-54
2022/10/18 10:55:18;;;;;;;2.65;1.00;;;23.00;56.20;;;;;;5056812;28;20056;-50
2022/10/18 10:57:47;;;;;;;3.40;1.02;;;23.10;55.90;;;;;;5055861;28;20531;-56
2022/10/18 11:00:40;;;;;;;4.50;0.88;;;23.20;55.50;;;;;;5056499;28;20492;-56
2022/10/18 11:03:20;;;;;;;3.83;1.08;;;23.40;55.30;;;;;;5055059;28;20452;-55
2022/10/18 11:05:54;;;;;;;3.85;1.00;;;23.50;55.80;;;;;;5056573;28;20037;-55
2022/10/18 11:08:24;;;;;;;2.65;1.17;;;23.60;54.90;;;;;;5053630;28;20075;-59
2022/10/18 11:11:13;;;;;;;3.85;1.17;;;23.70;54.80;;;;;;5036620;28;20362;-57
2022/10/18 11:13:52;;;;;;;4.65;1.38;;;23.80;54.50;;;;;;5044551;28;20053;-54
2022/10/18 11:16:46;;;;;;;2.85;1.08;;;23.90;54.40;;;;;;5054168;28;20033;-56
2022/10/18 11:19:42;;;;;;;3.03;1.30;;;24.00;54.20;;;;;;5050987;28;20368;-55
2022/10/18 11:22:16;;;;;;;3.33;1.30;;;24.10;54.00;;;;;;5056279;28;20029;-53
2022/10/18 11:24:42;;;;;;;3.13;1.10;;;24.20;53.90;;;;;;5056497;28;20039;-57
2022/10/18 11:27:16;;;;;;;5.18;1.30;;;24.20;53.70;;;;;;5054619;28;20029;-56
2022/10/18 11:30:26;;;;;;;2.97;1.40;;;24.30;53.50;;;;;;5056629;28;20037;-52
2022/10/18 11:33:00;;;;;;;2.97;1.10;;;24.40;53.30;;;;;;5054562;28;20037;-59
2022/10/18 11:35:49;;;;;;;3.35;1.25;;;24.40;53.10;;;;;;5055016;28;20037;-53
2022/10/18 11:38:25;;;;;;;5.93;1.20;;;24.50;53.00;;;;;;5043240;28;20060;-52
2022/10/18 11:41:08;;;;;;;2.67;1.20;;;24.60;52.80;;;;;;5056736;28;20032;-51
2022/10/18 11:43:55;;;;;;;3.85;1.10;;;24.60;52.60;;;;;;5055041;28;20056;-51
2022/10/18 11:46:26;;;;;;;3.80;1.00;;;24.70;52.40;;;;;;5036376;28;20044;-55
2022/10/18 11:49:35;;;;;;;4.30;1.20;;;24.80;52.40;;;;;;5041280;28;20057;-53
2022/10/18 11:52:12;;;;;;;4.38;1.45;;;24.80;52.20;;;;;;5055841;28;20044;-56
2022/10/18 11:55:15;;;;;;;3.70;1.10;;;24.80;52.00;;;;;;5053894;28;20028;-56
2022/10/18 11:58:14;;;;;;;4.25;1.63;;;24.90;51.80;;;;;;5055963;28;20044;-54
2022/10/18 12:00:47;;;;;;;6.57;1.67;;;24.90;51.60;;;;;;5052535;28;20029;-55
2022/10/18 12:03:34;;;;;;;2.90;0.95;;;25.00;51.60;;;;;;5052606;28;20036;-54
2022/10/18 12:06:09;;;;;;;2.60;1.15;;;25.00;51.50;;;;;;5053581;28;20132;-54
2022/10/18 12:08:42;;;;;;;3.67;1.40;;;25.00;51.30;;;;;;5050970;28;20095;-53
2022/10/18 12:11:31;;;;;;;4.30;1.33;;;25.00;51.20;;;;;;5055713;28;20037;-57
2022/10/18 12:14:04;;;;;;;5.50;1.15;;;25.00;51.20;;;;;;5054575;28;20422;-52
2022/10/18 12:16:35;;;;;;;2.92;1.10;;;25.00;51.20;;;;;;5055494;28;20040;-52
2022/10/18 12:19:19;;;;;;;3.25;1.17;;;25.10;51.20;;;;;;5053191;28;20037;-51
2022/10/18 12:21:46;;;;;;;6.03;1.17;;;25.10;51.10;;;;;;5053296;28;20410;-52
2022/10/18 12:24:27;;;;;;;4.40;1.10;;;25.20;51.20;;;;;;5054395;28;20467;-54
2022/10/18 12:27:00;;;;;;;3.25;0.93;;;25.20;51.10;;;;;;5035357;28;20037;-52
2022/10/18 12:29:46;;;;;;;2.78;1.15;;;25.20;50.90;;;;;;5045672;28;20055;-56
2022/10/18 12:32:17;;;;;;;3.55;1.17;;;25.30;50.80;;;;;;5041775;28;20022;-56
2022/10/18 12:34:48;;;;;;;2.35;0.85;;;25.30;50.70;;;;;;5041710;28;20029;-53
2022/10/18 12:37:36;;;;;;;2.63;1.30;;;25.30;50.50;;;;;;5054534;28;20033;-54
2022/10/18 12:40:15;;;;;;;4.70;1.30;;;25.40;50.50;;;;;;5054468;28;20029;-56
2022/10/18 12:42:49;;;;;;;2.92;1.00;;;25.40;50.20;;;;;;5055294;28;20028;-55
2022/10/18 12:45:32;;;;;;;3.40;1.00;;;25.40;50.00;;;;;;5042572;28;20364;-58
2022/10/18 12:48:06;;;;;;;2.22;1.00;;;25.50;49.90;;;;;;5055053;28;20440;-55
2022/10/18 12:50:38;;;;;;;3.83;1.00;;;25.50;49.90;;;;;;5053195;28;20025;-50
2022/10/18 12:53:23;;;;;;;2.78;1.10;;;25.50;49.90;;;;;;5053858;28;20025;-57
2022/10/18 12:55:50;;;;;;;3.28;0.88;;;25.60;49.80;;;;;;5054018;28;20330;-56
2022/10/18 12:58:31;;;;;;;3.00;0.90;;;25.60;49.80;;;;;;5052629;28;20033;-53
2022/10/18 13:01:03;;;;;;;2.17;0.90;;;25.60;49.90;;;;;;5052492;28;20456;-53
2022/10/18 13:03:55;;;;;;;2.60;0.90;;;25.70;50.00;;;;;;5052725;28;20039;-52
2022/10/18 13:06:22;;;;;;;3.85;1.25;;;25.70;50.10;;;;;;5051987;28;20039;-58
2022/10/18 13:09:14;;;;;;;3.13;0.88;;;25.80;50.10;;;;;;5053270;28;20029;-56